Time;durP1;ratioP1;P1;durP2;ratioP2;P2;SDS_P1;SDS_P2;PMS_P1;PMS_P2;Temp;Humidity;BMP_temperature;BMP_pressure;BME280_temperature;BME280_humidity;BME280_pressure;Samples;Min_cycle;Max_cycle;Signal;HPM_P1;HPM_P2
2021/06/20 00:00:54;;;;;;;0.10;0.10;;;24.70;64.20;;;;;;4226349;27;20039;-52
2021/06/20 00:03:16;;;;;;;0.00;0.00;;;24.70;64.20;;;;;;4224267;28;20406;-53
2021/06/20 00:05:43;;;;;;;0.00;0.00;;;24.70;64.30;;;;;;4223126;27;20078;-53
2021/06/20 00:08:08;;;;;;;0.28;0.17;;;24.70;64.30;;;;;;4222759;27;20139;-54
2021/06/20 00:10:30;;;;;;;0.00;0.00;;;24.60;64.30;;;;;;4225479;27;20047;-52
2021/06/20 00:12:56;;;;;;;0.00;0.00;;;24.60;64.30;;;;;;4225267;27;20051;-54
2021/06/20 00:15:19;;;;;;;0.17;0.17;;;24.60;64.40;;;;;;4224169;27;20053;-54
2021/06/20 00:17:42;;;;;;;0.00;0.00;;;24.60;64.40;;;;;;4223743;27;20054;-54
2021/06/20 00:20:07;;;;;;;0.40;0.40;;;24.60;64.40;;;;;;4222563;27;20489;-50
2021/06/20 00:22:28;;;;;;;0.47;0.47;;;24.60;64.40;;;;;;4225881;27;20467;-56
2021/06/20 00:24:51;;;;;;;0.82;0.82;;;24.60;64.40;;;;;;4220689;28;20112;-54
2021/06/20 00:27:15;;;;;;;0.00;0.00;;;24.60;64.40;;;;;;4223493;27;20417;-52
2021/06/20 00:29:39;;;;;;;0.80;0.80;;;24.60;64.40;;;;;;4222420;27;20051;-54
2021/06/20 00:32:00;;;;;;;0.10;0.10;;;24.60;64.60;;;;;;4226212;27;20039;-53
2021/06/20 00:34:23;;;;;;;2.10;1.15;;;24.60;64.60;;;;;;4225154;27;20043;-52
2021/06/20 00:36:45;;;;;;;0.35;0.35;;;24.60;64.70;;;;;;4223962;28;20053;-54
2021/06/20 00:39:07;;;;;;;0.22;0.22;;;24.60;64.60;;;;;;4224660;27;20048;-53
2021/06/20 00:41:29;;;;;;;0.85;0.63;;;24.60;64.70;;;;;;4225853;27;20051;-52
2021/06/20 00:43:52;;;;;;;1.67;1.40;;;24.60;64.70;;;;;;4224637;27;20066;-54
2021/06/20 00:46:15;;;;;;;0.20;0.20;;;24.60;64.70;;;;;;4221755;28;20303;-54
2021/06/20 00:48:38;;;;;;;0.98;0.50;;;24.60;64.70;;;;;;4221361;28;20181;-52
2021/06/20 00:51:00;;;;;;;0.70;0.70;;;24.60;64.70;;;;;;4225701;28;20429;-55
2021/06/20 00:53:22;;;;;;;0.32;0.32;;;24.70;64.80;;;;;;4224069;27;20052;-53
2021/06/20 00:55:49;;;;;;;0.00;0.00;;;24.70;64.70;;;;;;4222774;27;20116;-52
2021/06/20 00:58:11;;;;;;;0.73;0.73;;;24.70;64.90;;;;;;4222567;27;20489;-55
2021/06/20 01:00:35;;;;;;;0.50;0.50;;;24.70;64.70;;;;;;4224270;27;20051;-52
2021/06/20 01:02:59;;;;;;;0.00;0.00;;;24.70;64.70;;;;;;4224946;27;20143;-50
2021/06/20 01:05:22;;;;;;;0.00;0.00;;;24.70;65.70;;;;;;4223962;27;20051;-53
2021/06/20 01:07:45;;;;;;;0.32;0.32;;;24.70;64.80;;;;;;4222867;27;20079;-54
2021/06/20 01:10:08;;;;;;;0.30;0.30;;;24.70;64.90;;;;;;4224191;28;20413;-51
2021/06/20 01:12:30;;;;;;;0.20;0.20;;;24.70;64.90;;;;;;4225544;27;20514;-52
2021/06/20 01:14:52;;;;;;;0.10;0.10;;;24.70;65.20;;;;;;4223717;27;20520;-50
2021/06/20 01:17:15;;;;;;;0.30;0.30;;;24.60;65.00;;;;;;4223135;27;20097;-53
2021/06/20 01:19:40;;;;;;;0.77;0.65;;;24.70;65.10;;;;;;4221768;27;20502;-53
2021/06/20 01:22:19;;;;;;;0.35;0.35;;;24.70;65.10;;;;;;4221144;27;20065;-53
2021/06/20 01:24:41;;;;;;;0.70;0.70;;;24.60;65.00;;;;;;4220436;28;20181;-53
2021/06/20 01:27:04;;;;;;;0.10;0.10;;;24.60;65.20;;;;;;4221377;27;20043;-52
2021/06/20 01:29:32;;;;;;;0.00;0.00;;;24.60;65.20;;;;;;4224203;27;20051;-54
2021/06/20 01:31:57;;;;;;;0.45;0.38;;;24.60;65.30;;;;;;4223749;28;20058;-55
2021/06/20 01:34:19;;;;;;;0.08;0.08;;;24.60;65.30;;;;;;4222947;27;20070;-55
2021/06/20 01:36:41;;;;;;;0.10;0.10;;;24.60;65.40;;;;;;4221824;27;20515;-55
2021/06/20 01:39:05;;;;;;;0.00;0.00;;;24.60;66.50;;;;;;4220824;27;20043;-48
2021/06/20 01:41:28;;;;;;;3.65;1.65;;;24.60;65.60;;;;;;4224586;27;20068;-53
2021/06/20 01:43:50;;;;;;;3.83;0.75;;;24.60;65.70;;;;;;4222903;27;20051;-53
2021/06/20 01:46:12;;;;;;;0.00;0.00;;;24.60;66.70;;;;;;4220719;27;20055;-49
2021/06/20 01:48:36;;;;;;;0.10;0.10;;;24.50;65.70;;;;;;4220324;27;20823;-55
2021/06/20 01:50:58;;;;;;;0.50;0.50;;;24.50;65.80;;;;;;4224805;27;20052;-55
2021/06/20 01:53:20;;;;;;;2.72;0.57;;;24.50;65.90;;;;;;4223023;27;20051;-53
2021/06/20 01:55:45;;;;;;;0.10;0.10;;;24.50;65.90;;;;;;4221982;28;20109;-55
2021/06/20 01:58:09;;;;;;;0.00;0.00;;;24.50;65.90;;;;;;4220867;27;20083;-50
2021/06/20 02:00:32;;;;;;;1.17;0.75;;;24.50;66.00;;;;;;4224100;28;20409;-55
2021/06/20 02:02:54;;;;;;;1.15;0.43;;;24.50;66.10;;;;;;4223179;28;20056;-54
2021/06/20 02:05:16;;;;;;;0.20;0.20;;;24.50;66.30;;;;;;4221666;27;20043;-53
2021/06/20 02:07:39;;;;;;;0.10;0.10;;;24.50;66.30;;;;;;4220827;27;20047;-53
2021/06/20 02:10:01;;;;;;;0.10;0.10;;;24.50;67.20;;;;;;4224264;28;20142;-51
2021/06/20 02:12:27;;;;;;;0.45;0.40;;;24.50;66.30;;;;;;4223042;27;20051;-51
2021/06/20 02:14:50;;;;;;;0.00;0.00;;;24.50;66.30;;;;;;4222990;27;20399;-50
2021/06/20 02:17:22;;;;;;;0.17;0.17;;;24.50;66.30;;;;;;4221389;28;20051;-50
2021/06/20 02:19:45;;;;;;;0.50;0.45;;;24.50;66.30;;;;;;4222245;27;20078;-53
2021/06/20 02:22:07;;;;;;;0.70;0.70;;;24.40;67.20;;;;;;4223531;27;20055;-53
2021/06/20 02:24:29;;;;;;;0.10;0.10;;;24.40;66.20;;;;;;4223568;27;20060;-53
2021/06/20 02:26:51;;;;;;;0.93;0.93;;;24.40;66.20;;;;;;4222459;28;20067;-51
2021/06/20 02:29:15;;;;;;;0.10;0.10;;;24.40;66.70;;;;;;4220753;28;20514;-56
2021/06/20 02:31:36;;;;;;;0.00;0.00;;;24.40;66.50;;;;;;4220014;28;20055;-53
2021/06/20 02:33:59;;;;;;;0.30;0.30;;;24.40;66.50;;;;;;4224049;28;20108;-55
2021/06/20 02:36:21;;;;;;;0.32;0.32;;;24.40;66.50;;;;;;4222165;28;20054;-55
2021/06/20 02:38:43;;;;;;;0.30;0.30;;;24.40;66.60;;;;;;4220736;28;20054;-55
2021/06/20 02:41:05;;;;;;;0.93;0.93;;;24.40;66.70;;;;;;4223550;28;20137;-56
2021/06/20 02:43:27;;;;;;;2.45;1.35;;;24.40;67.60;;;;;;4224024;28;20083;-55
2021/06/20 02:45:50;;;;;;;0.30;0.30;;;24.40;66.80;;;;;;4221677;28;20456;-54
2021/06/20 02:48:13;;;;;;;0.08;0.08;;;24.40;66.80;;;;;;4217095;27;20072;-56
2021/06/20 02:50:35;;;;;;;0.28;0.28;;;24.40;66.90;;;;;;4219643;28;20489;-52
2021/06/20 02:52:57;;;;;;;0.60;0.60;;;24.40;67.10;;;;;;4224117;27;20514;-53
2021/06/20 02:55:20;;;;;;;0.00;0.00;;;24.40;66.90;;;;;;4222235;27;20097;-55
2021/06/20 02:57:43;;;;;;;2.50;0.70;;;24.40;67.10;;;;;;4220909;27;20108;-54
2021/06/20 03:00:07;;;;;;;0.65;0.65;;;24.30;67.00;;;;;;4219279;28;20051;-51
2021/06/20 03:02:31;;;;;;;0.38;0.38;;;24.30;67.10;;;;;;4223205;28;20048;-51
2021/06/20 03:04:54;;;;;;;0.15;0.15;;;24.40;67.10;;;;;;4221553;28;20051;-52
2021/06/20 03:07:16;;;;;;;1.20;0.43;;;24.30;67.20;;;;;;4220953;28;20059;-55
2021/06/20 03:09:39;;;;;;;0.20;0.20;;;24.30;67.30;;;;;;4219914;27;20554;-54
2021/06/20 03:12:01;;;;;;;0.75;0.52;;;24.30;67.30;;;;;;4223448;28;20058;-50
2021/06/20 03:14:24;;;;;;;0.20;0.20;;;24.30;67.40;;;;;;4223399;28;20421;-53
2021/06/20 03:16:46;;;;;;;0.30;0.30;;;24.30;67.40;;;;;;4220823;28;20418;-52
2021/06/20 03:19:10;;;;;;;0.52;0.52;;;24.30;67.50;;;;;;4223258;27;20048;-49
2021/06/20 03:21:33;;;;;;;0.03;0.03;;;24.30;67.40;;;;;;4223203;28;20052;-52
2021/06/20 03:23:55;;;;;;;0.22;0.22;;;24.30;67.50;;;;;;4222189;28;20055;-49
2021/06/20 03:26:17;;;;;;;0.00;0.00;;;24.30;67.50;;;;;;4221262;28;20066;-55
2021/06/20 03:28:39;;;;;;;0.15;0.15;;;24.30;67.50;;;;;;4219145;28;20517;-53
2021/06/20 03:31:01;;;;;;;0.82;0.82;;;24.30;67.50;;;;;;4223029;28;20059;-53
2021/06/20 03:33:23;;;;;;;0.22;0.22;;;24.30;67.60;;;;;;4221719;28;20070;-52
2021/06/20 03:35:47;;;;;;;0.00;0.00;;;24.30;67.70;;;;;;4220556;28;20055;-48
2021/06/20 03:38:09;;;;;;;0.17;0.17;;;24.40;67.70;;;;;;4220020;28;20079;-53
2021/06/20 03:40:30;;;;;;;0.30;0.30;;;24.40;67.70;;;;;;4222969;28;20079;-53
2021/06/20 03:42:53;;;;;;;0.10;0.10;;;24.40;67.70;;;;;;4221527;28;20054;-49
2021/06/20 03:45:15;;;;;;;0.30;0.30;;;24.40;67.70;;;;;;4220442;28;20056;-55
2021/06/20 03:47:39;;;;;;;1.45;0.82;;;24.40;67.80;;;;;;4222995;28;20126;-49
2021/06/20 03:50:01;;;;;;;0.22;0.22;;;24.40;67.80;;;;;;4223493;28;20505;-52
2021/06/20 03:52:25;;;;;;;0.00;0.00;;;24.40;67.80;;;;;;4221641;28;20059;-52
2021/06/20 03:54:50;;;;;;;0.10;0.10;;;24.40;67.80;;;;;;4220707;28;20052;-49
2021/06/20 03:57:12;;;;;;;0.00;0.00;;;24.40;67.90;;;;;;4219964;28;20064;-51
2021/06/20 03:59:34;;;;;;;0.30;0.30;;;24.40;67.90;;;;;;4218499;28;20459;-52
2021/06/20 04:01:57;;;;;;;0.10;0.10;;;24.40;68.10;;;;;;4222530;28;20043;-53
2021/06/20 04:04:19;;;;;;;0.90;0.73;;;24.40;68.10;;;;;;4220845;28;20043;-54
2021/06/20 04:06:41;;;;;;;0.20;0.20;;;24.40;68.10;;;;;;4219401;28;20109;-52
2021/06/20 04:09:05;;;;;;;0.55;0.55;;;24.40;68.10;;;;;;4221584;28;20494;-51
2021/06/20 04:11:27;;;;;;;0.00;0.00;;;24.40;68.20;;;;;;4217791;28;20097;-49
2021/06/20 04:13:50;;;;;;;0.08;0.08;;;24.40;68.30;;;;;;4219508;28;20525;-50
2021/06/20 04:16:12;;;;;;;0.10;0.10;;;24.40;68.20;;;;;;4222387;28;20418;-52
2021/06/20 04:18:34;;;;;;;1.75;1.38;;;24.40;68.30;;;;;;4223590;28;20141;-52
2021/06/20 04:20:56;;;;;;;2.20;1.23;;;24.40;68.30;;;;;;4221875;28;20048;-52
2021/06/20 04:23:19;;;;;;;26.77;1.65;;;24.40;68.30;;;;;;4220699;28;20405;-53
2021/06/20 04:25:42;;;;;;;0.50;0.50;;;24.40;68.40;;;;;;4219267;28;20093;-54
2021/06/20 04:28:05;;;;;;;0.10;0.10;;;24.40;68.40;;;;;;4222677;28;20513;-53
2021/06/20 04:30:27;;;;;;;0.22;0.22;;;24.40;68.40;;;;;;4223916;27;20077;-53
2021/06/20 04:32:51;;;;;;;1.10;1.10;;;24.40;68.40;;;;;;4221837;28;20590;-54
2021/06/20 04:35:14;;;;;;;0.73;0.73;;;24.40;68.40;;;;;;4221844;27;20085;-52
2021/06/20 04:37:37;;;;;;;0.00;0.00;;;24.40;68.30;;;;;;4225395;27;20047;-52
2021/06/20 04:39:59;;;;;;;1.08;0.73;;;24.40;68.40;;;;;;4225490;27;20050;-51
2021/06/20 04:42:32;;;;;;;0.20;0.20;;;24.40;68.30;;;;;;4223985;27;20131;-54
2021/06/20 04:44:54;;;;;;;0.40;0.40;;;24.40;68.30;;;;;;4224061;27;20093;-50
2021/06/20 04:47:22;;;;;;;0.00;0.00;;;24.40;68.30;;;;;;4222830;27;20152;-52
2021/06/20 04:49:44;;;;;;;0.30;0.30;;;24.40;68.40;;;;;;4222395;27;20093;-51
2021/06/20 04:52:08;;;;;;;0.65;0.65;;;24.40;68.40;;;;;;4223223;27;20138;-55
2021/06/20 04:54:35;;;;;;;0.00;0.00;;;24.40;68.40;;;;;;4226020;28;20067;-54
2021/06/20 04:56:58;;;;;;;0.10;0.10;;;24.40;68.40;;;;;;4224870;27;20617;-52
2021/06/20 04:59:21;;;;;;;0.00;0.00;;;24.40;68.40;;;;;;4223479;27;20467;-52
2021/06/20 05:01:43;;;;;;;0.17;0.15;;;24.40;68.50;;;;;;4222267;27;20075;-53
2021/06/20 05:04:05;;;;;;;0.17;0.17;;;24.40;68.70;;;;;;4221891;27;20486;-51
2021/06/20 05:06:28;;;;;;;0.20;0.20;;;24.40;69.20;;;;;;4226096;27;20062;-52
2021/06/20 05:08:50;;;;;;;0.28;0.28;;;24.50;69.10;;;;;;4226165;27;20085;-53
2021/06/20 05:11:12;;;;;;;3.08;0.85;;;24.50;68.90;;;;;;4225881;27;20485;-53
2021/06/20 05:13:35;;;;;;;0.15;0.15;;;24.40;68.80;;;;;;4209427;28;20060;-55
2021/06/20 05:15:58;;;;;;;5.93;0.65;;;24.50;68.90;;;;;;4225634;27;20134;-51
2021/06/20 05:18:20;;;;;;;0.03;0.03;;;24.40;68.80;;;;;;4226761;28;20035;-51
2021/06/20 05:20:42;;;;;;;0.57;0.57;;;24.40;68.90;;;;;;4224179;28;20047;-50
2021/06/20 05:23:04;;;;;;;0.00;0.00;;;24.40;69.00;;;;;;4226018;27;20048;-50
2021/06/20 05:25:27;;;;;;;0.30;0.30;;;24.40;69.00;;;;;;4226391;27;20494;-53
2021/06/20 05:27:49;;;;;;;0.38;0.38;;;24.40;69.00;;;;;;4209602;28;20082;-53
2021/06/20 05:30:12;;;;;;;1.02;0.47;;;24.40;68.90;;;;;;4219378;28;20132;-52
2021/06/20 05:32:36;;;;;;;0.15;0.15;;;24.40;68.90;;;;;;4226204;27;20093;-51
2021/06/20 05:34:58;;;;;;;1.65;0.57;;;24.40;68.90;;;;;;4226150;27;20051;-52
2021/06/20 05:37:20;;;;;;;0.63;0.63;;;24.40;69.00;;;;;;4226022;27;20047;-53
2021/06/20 05:39:43;;;;;;;0.35;0.35;;;24.40;69.00;;;;;;4226214;28;20485;-51
2021/06/20 05:42:05;;;;;;;0.15;0.15;;;24.40;69.20;;;;;;4226018;27;20047;-50
2021/06/20 05:44:29;;;;;;;0.00;0.00;;;24.40;69.20;;;;;;4213104;28;20566;-48
2021/06/20 05:46:51;;;;;;;0.38;0.38;;;24.40;69.40;;;;;;4225504;28;20083;-48
2021/06/20 05:49:14;;;;;;;0.30;0.30;;;24.30;70.20;;;;;;4225920;27;20405;-51
2021/06/20 05:51:36;;;;;;;0.57;0.57;;;24.40;69.50;;;;;;4225818;27;20493;-51
2021/06/20 05:53:58;;;;;;;0.00;0.00;;;24.40;69.50;;;;;;4225923;28;20075;-51
2021/06/20 05:56:20;;;;;;;0.30;0.30;;;24.40;69.50;;;;;;4208953;28;20406;-50
2021/06/20 05:58:42;;;;;;;0.20;0.20;;;24.40;69.50;;;;;;4209136;28;20044;-51
2021/06/20 06:01:07;;;;;;;0.32;0.30;;;24.40;69.60;;;;;;4208745;28;20584;-51
2021/06/20 06:03:31;;;;;;;0.75;0.75;;;24.40;70.30;;;;;;4221167;27;20489;-52
2021/06/20 06:05:55;;;;;;;0.57;0.57;;;24.40;69.50;;;;;;4225660;28;20054;-52
2021/06/20 06:08:17;;;;;;;0.20;0.20;;;24.40;69.50;;;;;;4225654;27;20047;-49
2021/06/20 06:10:39;;;;;;;0.68;0.68;;;24.40;69.50;;;;;;4225398;27;20043;-50
2021/06/20 06:13:02;;;;;;;0.32;0.32;;;24.40;69.40;;;;;;4225698;27;20036;-50
2021/06/20 06:15:25;;;;;;;0.43;0.43;;;24.40;69.40;;;;;;4225290;27;20073;-51
2021/06/20 06:17:49;;;;;;;1.40;1.08;;;24.40;69.60;;;;;;4225432;28;20500;-49
2021/06/20 06:20:12;;;;;;;1.60;1.02;;;24.50;72.10;;;;;;4223952;28;20043;-49
2021/06/20 06:22:36;;;;;;;0.40;0.40;;;24.50;76.10;;;;;;4225547;28;20054;-53
2021/06/20 06:24:58;;;;;;;3.30;1.48;;;24.50;76.00;;;;;;4224967;28;20084;-55
2021/06/20 06:27:20;;;;;;;1.42;0.50;;;24.50;75.00;;;;;;4225538;27;20584;-56
2021/06/20 06:29:43;;;;;;;0.22;0.22;;;24.50;73.90;;;;;;4224275;27;20054;-55
2021/06/20 06:32:06;;;;;;;0.40;0.40;;;24.50;73.80;;;;;;4215004;27;20135;-55
2021/06/20 06:34:28;;;;;;;0.20;0.20;;;24.40;73.50;;;;;;4223715;27;20048;-55
2021/06/20 06:36:51;;;;;;;1.13;1.13;;;24.40;73.60;;;;;;4224775;28;20138;-55
2021/06/20 06:39:14;;;;;;;0.20;0.15;;;24.40;74.60;;;;;;4225096;27;20043;-54
2021/06/20 06:41:37;;;;;;;0.65;0.65;;;24.40;75.00;;;;;;4225040;28;20074;-55
2021/06/20 06:43:59;;;;;;;0.57;0.55;;;24.40;74.60;;;;;;4209541;28;20047;-53
2021/06/20 06:46:22;;;;;;;1.75;0.68;;;24.40;75.20;;;;;;4224503;28;20427;-51
2021/06/20 06:48:44;;;;;;;1.65;1.05;;;24.40;75.00;;;;;;4224837;28;20409;-52
2021/06/20 06:51:06;;;;;;;0.13;0.13;;;24.40;75.20;;;;;;4223418;28;20051;-48
2021/06/20 06:53:28;;;;;;;1.40;1.17;;;24.40;75.20;;;;;;4222502;28;20052;-52
2021/06/20 06:55:53;;;;;;;0.10;0.10;;;24.40;75.00;;;;;;4220185;28;20046;-55
2021/06/20 06:58:15;;;;;;;1.13;1.13;;;24.40;74.80;;;;;;4224453;27;20052;-53
2021/06/20 07:00:37;;;;;;;0.95;0.73;;;24.30;74.70;;;;;;4224201;28;20130;-51
2021/06/20 07:02:59;;;;;;;0.45;0.45;;;24.30;74.70;;;;;;4224603;27;20040;-50
2021/06/20 07:05:21;;;;;;;0.32;0.32;;;24.30;74.80;;;;;;4224211;28;20047;-54
2021/06/20 07:07:44;;;;;;;0.00;0.00;;;24.20;74.60;;;;;;4224625;27;20051;-51
2021/06/20 07:10:08;;;;;;;0.52;0.47;;;24.20;74.30;;;;;;4224275;28;20074;-53
2021/06/20 07:12:32;;;;;;;0.93;0.80;;;24.20;74.00;;;;;;4224141;27;20451;-52
2021/06/20 07:14:54;;;;;;;0.82;0.68;;;24.20;73.80;;;;;;4224446;28;20054;-56
2021/06/20 07:17:16;;;;;;;0.30;0.30;;;24.30;73.60;;;;;;4224523;28;20055;-57
2021/06/20 07:19:39;;;;;;;0.10;0.10;;;24.30;73.30;;;;;;4224478;28;20508;-56
2021/06/20 07:22:02;;;;;;;0.00;0.00;;;24.30;73.10;;;;;;4223968;28;20125;-55
2021/06/20 07:24:24;;;;;;;0.10;0.10;;;24.30;72.90;;;;;;4208046;28;20515;-55
2021/06/20 07:26:46;;;;;;;0.38;0.38;;;24.40;72.80;;;;;;4207872;28;20047;-54
2021/06/20 07:29:10;;;;;;;0.13;0.13;;;24.40;72.60;;;;;;4212028;28;20083;-54
2021/06/20 07:31:32;;;;;;;0.00;0.00;;;24.40;72.30;;;;;;4223392;28;20520;-53
2021/06/20 07:33:54;;;;;;;0.08;0.08;;;24.40;72.00;;;;;;4224091;28;20139;-50
2021/06/20 07:36:16;;;;;;;0.25;0.25;;;24.40;71.50;;;;;;4223868;28;20134;-55
2021/06/20 07:38:39;;;;;;;0.00;0.00;;;24.50;71.20;;;;;;4224907;28;20425;-55
2021/06/20 07:41:01;;;;;;;0.10;0.10;;;24.50;70.70;;;;;;4224183;28;20066;-54
2021/06/20 07:43:23;;;;;;;0.15;0.15;;;24.60;70.40;;;;;;4224591;28;20071;-54
2021/06/20 07:45:47;;;;;;;0.20;0.20;;;24.70;70.00;;;;;;4224607;28;20069;-54
2021/06/20 07:48:10;;;;;;;0.25;0.25;;;24.70;69.70;;;;;;4223337;28;20098;-53
2021/06/20 07:50:34;;;;;;;0.00;0.00;;;24.80;69.50;;;;;;4207888;28;20052;-55
2021/06/20 07:52:56;;;;;;;0.00;0.00;;;24.80;69.30;;;;;;4212136;28;20062;-55
2021/06/20 07:55:18;;;;;;;0.00;0.00;;;24.80;69.20;;;;;;4224384;28;20044;-57
2021/06/20 07:57:40;;;;;;;0.28;0.28;;;24.70;69.10;;;;;;4224230;28;20068;-56
2021/06/20 08:00:05;;;;;;;0.32;0.32;;;24.70;69.00;;;;;;4224427;28;20432;-53
2021/06/20 08:02:34;;;;;;;0.00;0.00;;;24.80;68.90;;;;;;4223664;28;20055;-51
2021/06/20 08:04:56;;;;;;;0.00;0.00;;;24.80;68.90;;;;;;4225863;27;20545;-55
2021/06/20 08:07:19;;;;;;;0.03;0.03;;;24.80;68.70;;;;;;4227628;27;20039;-55
2021/06/20 08:09:40;;;;;;;0.08;0.08;;;24.80;68.70;;;;;;4227483;27;20564;-52
2021/06/20 08:12:03;;;;;;;0.00;0.00;;;24.80;68.60;;;;;;4227235;27;20088;-56
2021/06/20 08:14:25;;;;;;;0.00;0.00;;;24.90;68.60;;;;;;4227534;27;20055;-53
2021/06/20 08:16:48;;;;;;;0.10;0.10;;;24.90;68.50;;;;;;4227414;27;20105;-51
2021/06/20 08:19:11;;;;;;;0.00;0.00;;;25.00;68.60;;;;;;4227437;27;20075;-53
2021/06/20 08:21:33;;;;;;;0.60;0.60;;;25.00;68.50;;;;;;4227091;28;20039;-55
2021/06/20 08:23:55;;;;;;;0.00;0.00;;;25.00;68.40;;;;;;4227288;27;20149;-52
2021/06/20 08:26:18;;;;;;;0.00;0.00;;;25.00;68.30;;;;;;4227479;27;20561;-56
2021/06/20 08:28:40;;;;;;;0.00;0.00;;;25.00;68.30;;;;;;4227129;27;20039;-56
2021/06/20 08:31:03;;;;;;;0.00;0.00;;;25.00;69.20;;;;;;4227371;27;20530;-56
2021/06/20 08:33:25;;;;;;;0.00;0.00;;;25.00;68.20;;;;;;4227161;27;20108;-50
2021/06/20 08:35:49;;;;;;;0.00;0.00;;;25.00;68.20;;;;;;4227093;27;20078;-56
2021/06/20 08:38:11;;;;;;;0.10;0.10;;;24.90;68.20;;;;;;4225646;27;20118;-55
2021/06/20 08:40:34;;;;;;;0.00;0.00;;;24.90;68.30;;;;;;4226946;27;20040;-56
2021/06/20 08:42:58;;;;;;;0.00;0.00;;;24.90;68.30;;;;;;4223938;27;20054;-54
2021/06/20 08:45:20;;;;;;;1.77;0.40;;;24.90;68.30;;;;;;4225569;28;20050;-55
2021/06/20 08:47:43;;;;;;;0.15;0.15;;;24.90;68.20;;;;;;4225403;27;20055;-57
2021/06/20 08:50:06;;;;;;;0.00;0.00;;;24.80;68.10;;;;;;4224177;27;20047;-56
2021/06/20 08:52:29;;;;;;;0.00;0.00;;;24.80;67.90;;;;;;4226814;27;20051;-54
2021/06/20 08:55:05;;;;;;;0.00;0.00;;;24.80;68.90;;;;;;4210160;28;20059;-55
2021/06/20 08:57:30;;;;;;;0.10;0.10;;;24.80;68.10;;;;;;4211453;28;20052;-56
2021/06/20 08:59:53;;;;;;;0.00;0.00;;;24.80;68.20;;;;;;4226632;27;20047;-56
2021/06/20 09:02:23;;;;;;;0.00;0.00;;;24.80;68.10;;;;;;4226271;28;20600;-56
2021/06/20 09:04:55;;;;;;;0.00;0.00;;;24.80;68.10;;;;;;4224179;28;20052;-55
2021/06/20 09:07:28;;;;;;;0.00;0.00;;;24.80;68.10;;;;;;4219562;28;20431;-55
2021/06/20 09:09:52;;;;;;;0.10;0.10;;;24.80;68.00;;;;;;4226434;28;20092;-56
2021/06/20 09:12:15;;;;;;;0.00;0.00;;;24.80;67.90;;;;;;4226446;27;20052;-56
2021/06/20 09:14:45;;;;;;;0.00;0.00;;;24.80;67.80;;;;;;4219071;28;20521;-55
2021/06/20 09:17:08;;;;;;;0.00;0.00;;;24.80;67.60;;;;;;4226268;28;20481;-54
2021/06/20 09:19:31;;;;;;;0.05;0.05;;;24.90;67.50;;;;;;4225272;28;20074;-59
2021/06/20 09:21:55;;;;;;;0.00;0.00;;;24.90;67.30;;;;;;4225926;28;20055;-56
2021/06/20 09:24:19;;;;;;;0.22;0.22;;;24.90;67.30;;;;;;4226436;28;20409;-52
2021/06/20 09:26:42;;;;;;;0.00;0.00;;;24.90;67.30;;;;;;4226464;27;20054;-56
2021/06/20 09:29:06;;;;;;;0.00;0.00;;;24.90;67.30;;;;;;4225205;28;20480;-53
2021/06/20 09:31:43;;;;;;;0.00;0.00;;;25.00;67.40;;;;;;4226099;27;20051;-54
2021/06/20 09:34:05;;;;;;;0.43;0.43;;;24.90;67.30;;;;;;4213169;28;20051;-52
2021/06/20 09:36:30;;;;;;;0.00;0.00;;;24.90;67.50;;;;;;4226149;28;20467;-55
2021/06/20 09:38:52;;;;;;;1.27;1.08;;;24.90;67.30;;;;;;4225855;27;20494;-56
2021/06/20 09:41:16;;;;;;;0.00;0.00;;;24.90;67.40;;;;;;4209547;28;20105;-53
2021/06/20 09:43:50;;;;;;;0.70;0.70;;;24.90;67.50;;;;;;4223038;27;20043;-55
2021/06/20 09:46:12;;;;;;;0.00;0.00;;;24.90;67.40;;;;;;4225849;27;20058;-56
2021/06/20 09:48:37;;;;;;;0.00;0.00;;;24.90;68.20;;;;;;4223986;27;20055;-54
2021/06/20 09:51:01;;;;;;;0.00;0.00;;;24.90;67.30;;;;;;4223941;28;20044;-55
2021/06/20 09:53:33;;;;;;;0.00;0.00;;;24.90;67.30;;;;;;4225640;27;20091;-57
2021/06/20 09:56:10;;;;;;;0.00;0.00;;;24.90;67.30;;;;;;4225244;28;20127;-55
2021/06/20 09:58:32;;;;;;;0.00;0.00;;;24.90;67.20;;;;;;4220374;28;20052;-50
2021/06/20 10:00:56;;;;;;;0.00;0.00;;;24.90;67.20;;;;;;4208901;28;20452;-55
2021/06/20 10:03:25;;;;;;;0.00;0.00;;;25.00;67.10;;;;;;4221237;28;20035;-53
2021/06/20 10:05:47;;;;;;;0.10;0.10;;;25.00;66.80;;;;;;4220241;28;20422;-55
2021/06/20 10:08:09;;;;;;;0.00;0.00;;;25.10;66.70;;;;;;4222348;27;20553;-54
2021/06/20 10:10:31;;;;;;;0.00;0.00;;;25.10;66.40;;;;;;4225658;28;20043;-50
2021/06/20 10:12:53;;;;;;;0.10;0.10;;;25.10;66.40;;;;;;4225498;28;20115;-52
2021/06/20 10:15:21;;;;;;;0.75;0.75;;;25.10;66.30;;;;;;4220101;27;20500;-56
2021/06/20 10:17:51;;;;;;;0.00;0.00;;;25.10;66.20;;;;;;4215692;28;20059;-55
2021/06/20 10:20:15;;;;;;;0.00;0.00;;;25.10;65.90;;;;;;4224691;27;20135;-57
2021/06/20 10:22:40;;;;;;;0.00;0.00;;;25.10;65.60;;;;;;4220136;28;20042;-55
2021/06/20 10:25:02;;;;;;;0.00;0.00;;;25.20;65.50;;;;;;4225083;27;20044;-53
2021/06/20 10:27:30;;;;;;;0.00;0.00;;;25.20;65.30;;;;;;4224596;28;20055;-55
2021/06/20 10:29:54;;;;;;;0.00;0.00;;;25.20;65.30;;;;;;4224629;28;20497;-53
2021/06/20 10:32:19;;;;;;;0.00;0.00;;;25.20;65.40;;;;;;4224638;28;20405;-53
2021/06/20 10:34:57;;;;;;;0.00;0.00;;;25.20;65.30;;;;;;4225336;28;20047;-55
2021/06/20 10:37:22;;;;;;;0.10;0.10;;;25.20;66.10;;;;;;4224812;28;20043;-56
2021/06/20 10:39:48;;;;;;;0.00;0.00;;;25.20;65.20;;;;;;4224870;27;20059;-54
2021/06/20 10:42:12;;;;;;;0.00;0.00;;;25.20;65.10;;;;;;4224874;28;20451;-53
2021/06/20 10:44:49;;;;;;;0.00;0.00;;;25.20;65.00;;;;;;4224644;28;20519;-54
2021/06/20 10:47:12;;;;;;;0.00;0.00;;;25.20;64.80;;;;;;4225257;28;20043;-56
2021/06/20 10:49:33;;;;;;;0.00;0.00;;;25.20;64.90;;;;;;4224303;27;20113;-55
2021/06/20 10:51:57;;;;;;;0.52;0.25;;;25.20;65.00;;;;;;4224810;28;20055;-59
2021/06/20 10:54:26;;;;;;;0.00;0.00;;;25.20;65.10;;;;;;4224817;28;20047;-56
2021/06/20 10:56:58;;;;;;;0.77;0.63;;;25.20;65.30;;;;;;4224695;27;20066;-56
2021/06/20 10:59:23;;;;;;;;;;;25.20;65.40;;;;;;4225371;28;20134;-56
2021/06/20 11:01:45;;;;;;;0.00;0.00;;;25.20;65.20;;;;;;4225022;27;19924;-53
2021/06/20 11:04:07;;;;;;;0.00;0.00;;;25.10;65.10;;;;;;4217408;28;20054;-54
2021/06/20 11:06:30;;;;;;;0.00;0.00;;;25.10;65.10;;;;;;4213783;28;20789;-57
2021/06/20 11:08:58;;;;;;;0.00;0.00;;;25.10;65.00;;;;;;4223791;28;20054;-51
2021/06/20 11:11:23;;;;;;;0.00;0.00;;;25.10;65.00;;;;;;4224326;28;20062;-50
2021/06/20 11:13:49;;;;;;;0.00;0.00;;;25.10;64.90;;;;;;4224334;28;20104;-51
2021/06/20 11:16:13;;;;;;;16.25;1.00;;;25.10;65.10;;;;;;4225000;27;20051;-51
2021/06/20 11:18:36;;;;;;;0.00;0.00;;;25.10;65.60;;;;;;4224732;28;20874;-53
2021/06/20 11:20:58;;;;;;;0.00;0.00;;;25.10;66.10;;;;;;4224688;28;20096;-52
2021/06/20 11:23:20;;;;;;;0.00;0.00;;;25.10;66.00;;;;;;4224578;28;20094;-55
2021/06/20 11:25:45;;;;;;;0.00;0.00;;;25.10;65.70;;;;;;4224151;28;20054;-54
2021/06/20 11:28:17;;;;;;;0.10;0.10;;;25.10;65.50;;;;;;4223880;27;20055;-51
2021/06/20 11:30:39;;;;;;;0.00;0.00;;;25.00;65.30;;;;;;4224569;28;20043;-55
2021/06/20 11:33:01;;;;;;;0.00;0.00;;;25.00;65.20;;;;;;4224629;28;20062;-52
2021/06/20 11:35:24;;;;;;;0.00;0.00;;;25.00;65.00;;;;;;4224644;28;20063;-55
2021/06/20 11:37:47;;;;;;;0.00;0.00;;;25.00;65.00;;;;;;4224769;28;20089;-54
2021/06/20 11:40:15;;;;;;;0.00;0.00;;;25.00;65.00;;;;;;4228292;27;20452;-52
2021/06/20 11:42:42;;;;;;;0.00;0.00;;;25.00;65.00;;;;;;4227668;27;20405;-53
2021/06/20 11:45:07;;;;;;;0.00;0.00;;;25.00;65.10;;;;;;4228014;28;20047;-56
2021/06/20 11:47:35;;;;;;;0.00;0.00;;;24.90;65.20;;;;;;4228076;27;20051;-53
2021/06/20 11:49:58;;;;;;;0.00;0.00;;;24.90;65.20;;;;;;4228092;27;20811;-51
2021/06/20 11:52:23;;;;;;;0.00;0.00;;;24.90;65.30;;;;;;4227995;27;20063;-53
2021/06/20 11:54:45;;;;;;;0.00;0.00;;;24.90;65.20;;;;;;4227310;27;20085;-53
2021/06/20 11:57:07;;;;;;;0.00;0.00;;;24.90;65.20;;;;;;4224184;28;20505;-51
2021/06/20 11:59:36;;;;;;;0.00;0.00;;;24.90;65.20;;;;;;4227633;27;20109;-53
2021/06/20 12:01:59;;;;;;;0.00;0.00;;;24.90;65.30;;;;;;4227936;28;20136;-54
2021/06/20 12:04:23;;;;;;;0.00;0.00;;;24.90;65.30;;;;;;4227816;28;20062;-52
2021/06/20 12:06:46;;;;;;;0.47;0.25;;;24.90;65.30;;;;;;4227457;27;20050;-55
2021/06/20 12:09:10;;;;;;;0.35;0.35;;;24.90;65.50;;;;;;4227676;27;20067;-52
2021/06/20 12:11:33;;;;;;;0.00;0.00;;;24.90;65.70;;;;;;4227257;27;20513;-51
2021/06/20 12:13:56;;;;;;;0.00;0.00;;;24.80;65.50;;;;;;4227389;27;20066;-53
2021/06/20 12:16:19;;;;;;;0.30;0.30;;;24.80;66.30;;;;;;4227548;27;20139;-53
2021/06/20 12:18:41;;;;;;;0.00;0.00;;;24.80;65.30;;;;;;4227795;27;20059;-55
2021/06/20 12:21:06;;;;;;;0.93;0.90;;;24.80;65.40;;;;;;4227089;27;20054;-53
2021/06/20 12:23:30;;;;;;;0.00;0.00;;;24.80;65.50;;;;;;4225119;27;20054;-55
2021/06/20 12:25:52;;;;;;;1.55;0.70;;;24.80;65.60;;;;;;4226481;27;20043;-52
2021/06/20 12:28:15;;;;;;;0.00;0.00;;;24.80;65.60;;;;;;4225406;28;20067;-53